Time;durP1;ratioP1;P1;durP2;ratioP2;P2;SDS_P1;SDS_P2;PMS_P1;PMS_P2;Temp;Humidity;BMP_temperature;BMP_pressure;BME280_temperature;BME280_humidity;BME280_pressure;Samples;Min_cycle;Max_cycle;Signal;HPM_P1;HPM_P2
2022/05/23 00:01:27;;;;;;;1.35;0.90;;;;;;;29.21;30.00;95887.72;5065030;28;20790;-31
2022/05/23 00:03:52;;;;;;;1.55;0.93;;;;;;;29.21;30.05;95883.28;5063293;28;20033;-31
2022/05/23 00:06:19;;;;;;;1.67;0.75;;;;;;;29.21;29.90;95883.28;5060368;28;20058;-32
2022/05/23 00:08:45;;;;;;;1.35;0.95;;;;;;;29.20;29.90;95871.06;5062510;28;20038;-33
2022/05/23 00:11:10;;;;;;;4.50;0.82;;;;;;;29.21;30.10;95872.75;5059618;28;20036;-31
2022/05/23 00:13:36;;;;;;;1.08;0.90;;;;;;;29.21;29.83;95867.47;5063683;28;20160;-31
2022/05/23 00:16:04;;;;;;;1.20;0.75;;;;;;;29.21;29.88;95862.19;5062892;28;20027;-33
2022/05/23 00:18:30;;;;;;;3.50;0.80;;;;;;;29.21;29.83;95859.53;5061719;28;20024;-36
2022/05/23 00:20:55;;;;;;;2.13;1.10;;;;;;;29.19;29.78;95852.72;5065145;28;20486;-31
2022/05/23 00:23:22;;;;;;;1.00;0.82;;;;;;;29.21;30.03;95838.44;5065505;28;20040;-32
2022/05/23 00:25:48;;;;;;;2.33;0.95;;;;;;;29.23;29.99;95832.19;5063288;28;20027;-31
2022/05/23 00:28:13;;;;;;;2.78;0.80;;;;;;;29.23;29.87;95826.91;5069355;28;20035;-32
2022/05/23 00:30:39;;;;;;;1.75;0.88;;;;;;;29.21;30.05;95827.88;5057065;28;20036;-32
2022/05/23 00:35:53;;;;;;;1.50;1.00;;;;;;;29.23;29.79;95816.38;5060496;28;20071;-32
2022/05/23 00:38:18;;;;;;;1.35;0.80;;;;;;;29.21;29.93;95814.69;5056995;28;20649;-31
2022/05/23 00:43:48;;;;;;;1.10;0.82;;;;;;;-148.56;100.00;61375.16;5046225;28;20051;-30
2022/05/23 00:46:14;;;;;;;1.08;0.65;;;;;;;29.21;29.74;95822.63;5047428;28;20134;-32
2022/05/23 00:48:39;;;;;;;1.08;0.65;;;;;;;29.21;29.88;95816.47;5056329;28;20023;-30
2022/05/23 00:51:11;;;;;;;2.92;0.63;;;;;;;29.19;30.02;95819.28;5061917;28;20039;-32
2022/05/23 00:53:39;;;;;;;4.18;1.30;;;;;;;29.19;29.82;95821.91;5058369;28;20027;-32
2022/05/23 00:56:08;;;;;;;1.15;0.70;;;;;;;29.21;30.14;95809.41;5042427;28;20059;-30
2022/05/23 00:58:42;;;;;;;2.45;1.00;;;;;;;29.21;30.20;95803.28;5062818;28;20028;-43
2022/05/23 01:01:09;;;;;;;2.15;0.80;;;;;;;29.21;30.00;95798.88;5053933;28;20024;-30
2022/05/23 01:03:34;;;;;;;2.20;0.90;;;;;;;29.21;29.85;95793.59;5057707;28;20078;-32
2022/05/23 01:06:00;;;;;;;1.20;0.80;;;;;;;29.21;29.85;95793.59;5056254;28;20033;-32
2022/05/23 01:08:26;;;;;;;1.40;0.80;;;;;;;29.23;29.92;95789.97;5063032;28;20779;-32
2022/05/23 01:10:52;;;;;;;1.50;0.90;;;;;;;29.22;29.74;95778.59;5051076;28;20884;-32
2022/05/23 01:13:17;;;;;;;2.30;0.63;;;;;;;29.21;30.16;95777.75;5059344;28;20032;-32
2022/05/23 01:15:44;;;;;;;1.13;0.70;;;;;;;29.22;29.87;95778.59;5060791;28;20035;-34
2022/05/23 01:18:09;;;;;;;3.22;0.70;;;;;;;-148.56;100.00;61375.16;5062814;28;20031;-31
2022/05/23 01:20:35;;;;;;;2.67;1.10;;;;;;;-148.56;100.00;61375.16;5057576;28;20024;-30
2022/05/23 01:23:31;;;;;;;1.88;1.02;;;;;;;-148.56;100.00;61375.16;5057183;28;20029;-31
2022/05/23 01:25:57;;;;;;;1.02;0.70;;;;;;;-148.56;100.00;61375.16;5059703;28;20052;-29
2022/05/23 01:28:22;;;;;;;2.78;0.90;;;;;;;-148.56;100.00;61375.16;5062415;28;20024;-36
2022/05/23 01:30:48;;;;;;;1.25;0.80;;;;;;;-148.56;100.00;61375.16;5058866;28;20037;-30
2022/05/23 01:33:13;;;;;;;2.75;0.85;;;;;;;-148.56;100.00;61375.16;5056855;28;20040;-33
2022/05/23 01:35:39;;;;;;;1.77;0.80;;;;;;;-148.56;100.00;61375.16;5059093;28;20244;-30
2022/05/23 01:38:05;;;;;;;1.77;0.82;;;;;;;-148.56;100.00;61375.16;5056396;28;20056;-32
2022/05/23 01:40:30;;;;;;;1.00;0.80;;;;;;;-148.56;100.00;61375.16;5056574;28;20033;-30
2022/05/23 01:42:56;;;;;;;1.52;0.75;;;;;;;-148.56;100.00;61375.16;5057667;28;20432;-31
2022/05/23 01:45:33;;;;;;;3.92;0.90;;;;;;;-148.56;100.00;61375.16;5062732;28;20071;-31
2022/05/23 01:47:58;;;;;;;1.60;0.80;;;;;;;-148.56;100.00;61375.16;5055153;28;20032;-29
2022/05/23 01:50:24;;;;;;;1.35;0.70;;;;;;;-148.56;100.00;61375.16;5056778;28;20055;-32
2022/05/23 01:52:50;;;;;;;0.95;0.65;;;;;;;-148.56;100.00;61375.16;5061156;28;20037;-31
2022/05/23 01:55:16;;;;;;;1.08;0.70;;;;;;;-148.56;100.00;61375.16;5060335;28;20379;-31
2022/05/23 01:57:42;;;;;;;1.38;1.00;;;;;;;-148.56;100.00;61375.16;5059002;28;20036;-32
2022/05/23 02:02:52;;;;;;;0.98;0.60;;;;;;;-148.56;100.00;61375.16;5050897;28;20067;-33
2022/05/23 02:05:18;;;;;;;1.27;0.63;;;;;;;-148.56;100.00;61375.16;5061952;28;20565;-33
2022/05/23 02:07:43;;;;;;;1.88;0.60;;;;;;;-148.56;100.00;61375.16;5063574;28;20028;-30
2022/05/23 02:10:09;;;;;;;2.10;0.75;;;;;;;-148.56;100.00;61375.16;5054746;28;20600;-34
2022/05/23 02:12:35;;;;;;;1.67;0.90;;;;;;;-148.56;100.00;61375.16;5063335;28;20769;-29
2022/05/23 02:15:01;;;;;;;1.60;0.70;;;;;;;-148.56;100.00;61375.16;5057713;28;20035;-30
2022/05/23 02:17:27;;;;;;;2.13;0.70;;;;;;;-148.56;100.00;61375.16;5059400;28;20021;-32
2022/05/23 02:19:52;;;;;;;0.80;0.50;;;;;;;-148.56;100.00;61375.16;5058270;28;20953;-30
2022/05/23 02:22:17;;;;;;;1.10;0.70;;;;;;;-148.56;100.00;61375.16;5061599;28;20043;-42
2022/05/23 02:24:43;;;;;;;1.73;0.70;;;;;;;-148.56;100.00;61375.16;5060964;28;20028;-31
2022/05/23 02:27:08;;;;;;;0.95;0.65;;;;;;;-148.56;100.00;61375.16;5056135;28;20032;-32
2022/05/23 02:29:34;;;;;;;0.93;0.68;;;;;;;-148.56;100.00;61375.16;5064470;28;23436;-32
2022/05/23 02:31:59;;;;;;;1.05;0.63;;;;;;;-148.56;100.00;61375.16;5055657;28;20032;-31
2022/05/23 02:34:25;;;;;;;0.75;0.60;;;;;;;-148.56;100.00;61375.16;5060439;28;20501;-30
2022/05/23 02:36:50;;;;;;;1.90;0.60;;;;;;;-148.56;100.00;61375.16;5060916;28;20942;-31
2022/05/23 02:39:16;;;;;;;1.48;1.00;;;;;;;-148.56;100.00;61375.16;5060414;28;20571;-30
2022/05/23 02:41:41;;;;;;;0.95;0.65;;;;;;;-148.56;100.00;61375.16;5058553;28;20028;-32
2022/05/23 02:44:07;;;;;;;1.05;0.90;;;;;;;-148.56;100.00;61375.16;5061424;28;20020;-32
2022/05/23 02:46:32;;;;;;;1.92;0.80;;;;;;;-148.56;100.00;61375.16;5059219;28;20241;-33
2022/05/23 02:48:58;;;;;;;1.15;0.70;;;;;;;-148.56;100.00;61375.16;5063207;28;20108;-30
2022/05/23 02:51:23;;;;;;;0.80;0.60;;;;;;;-148.56;100.00;61375.16;5060969;28;20138;-31
2022/05/23 02:53:49;;;;;;;0.95;0.75;;;;;;;-148.56;100.00;61375.16;5059501;28;21230;-32
2022/05/23 02:56:15;;;;;;;1.70;0.70;;;;;;;-148.56;100.00;61375.16;5048707;28;20139;-32
2022/05/23 02:58:41;;;;;;;0.60;0.60;;;;;;;-148.56;100.00;61375.16;5060561;28;20035;-32
2022/05/23 03:01:06;;;;;;;1.90;0.68;;;;;;;-148.56;100.00;61375.16;5058910;28;20732;-29
2022/05/23 03:03:33;;;;;;;2.08;0.68;;;;;;;-148.56;100.00;61375.16;5055188;28;20110;-31
2022/05/23 03:05:58;;;;;;;0.75;0.60;;;;;;;-148.56;100.00;61375.16;5054922;28;20031;-31
2022/05/23 03:08:25;;;;;;;1.33;0.68;;;;;;;-148.56;100.00;61375.16;5062141;28;20042;-30
2022/05/23 03:10:51;;;;;;;1.63;0.57;;;;;;;-148.56;100.00;61375.16;5055616;28;20115;-33
2022/05/23 03:13:17;;;;;;;0.60;0.50;;;;;;;-148.56;100.00;61375.16;5053874;28;20791;-32
2022/05/23 03:15:42;;;;;;;0.70;0.65;;;;;;;-148.56;100.00;61375.16;5058350;28;20047;-30
2022/05/23 03:18:08;;;;;;;0.73;0.63;;;;;;;-148.56;100.00;61375.16;5054653;28;20032;-30
2022/05/23 03:20:34;;;;;;;1.35;0.70;;;;;;;-148.56;100.00;61375.16;5050879;28;20036;-36
2022/05/23 03:28:27;;;;;;;0.73;0.52;;;;;;;-148.56;100.00;61375.16;5044475;28;20670;-30
2022/05/23 03:30:53;;;;;;;2.17;0.98;;;;;;;-148.56;100.00;61375.16;5059187;28;20028;-36
2022/05/23 03:33:18;;;;;;;0.80;0.60;;;;;;;-148.56;100.00;61375.16;5055984;28;20635;-32
2022/05/23 03:35:43;;;;;;;1.13;0.70;;;;;;;-148.56;100.00;61375.16;5062426;28;20025;-33
2022/05/23 03:38:09;;;;;;;0.52;0.52;;;;;;;-148.56;100.00;61375.16;5054796;28;20032;-31
2022/05/23 03:40:35;;;;;;;0.50;0.50;;;;;;;-148.56;100.00;61375.16;5039032;28;20032;-31
2022/05/23 03:43:01;;;;;;;3.58;0.77;;;;;;;-148.56;100.00;61375.16;5044617;28;20036;-32
2022/05/23 03:45:26;;;;;;;1.13;0.77;;;;;;;-148.56;100.00;61375.16;5061333;28;20035;-31
2022/05/23 03:47:52;;;;;;;0.63;0.63;;;;;;;-148.56;100.00;61375.16;5058590;28;21037;-31
2022/05/23 03:50:19;;;;;;;1.02;0.63;;;;;;;-148.56;100.00;61375.16;5061879;28;20028;-30
2022/05/23 03:52:44;;;;;;;1.75;0.85;;;;;;;-148.56;100.00;61375.16;5062969;28;20078;-32
2022/05/23 03:55:10;;;;;;;1.45;0.60;;;;;;;-148.56;100.00;61375.16;5062183;28;20024;-31
2022/05/23 03:57:35;;;;;;;0.93;0.60;;;;;;;-148.56;100.00;61375.16;5062277;28;20025;-32
2022/05/23 04:00:01;;;;;;;0.77;0.60;;;;;;;-148.56;100.00;61375.16;5062332;28;20032;-32
2022/05/23 04:02:27;;;;;;;1.98;0.80;;;;;;;-148.56;100.00;61375.16;5062887;28;20081;-31
2022/05/23 04:04:52;;;;;;;1.33;0.55;;;;;;;-148.56;100.00;61375.16;5059861;28;20059;-31
2022/05/23 04:07:18;;;;;;;0.88;0.70;;;;;;;-148.56;100.00;61375.16;5064948;28;20399;-30
2022/05/23 04:09:43;;;;;;;3.78;0.90;;;;;;;-148.56;100.00;61375.16;5062760;28;20031;-30
2022/05/23 04:12:09;;;;;;;1.08;0.70;;;;;;;-148.56;100.00;61375.16;5060678;28;20798;-31
2022/05/23 04:14:34;;;;;;;2.13;1.00;;;;;;;-148.56;100.00;61375.16;5060574;28;20954;-31
2022/05/23 04:17:00;;;;;;;3.97;1.20;;;;;;;-148.56;100.00;61375.16;5061844;28;20036;-31
2022/05/23 04:19:28;;;;;;;3.15;0.80;;;;;;;-148.56;100.00;61375.16;5060323;28;20101;-30
2022/05/23 04:21:53;;;;;;;1.30;0.77;;;;;;;-148.56;100.00;61375.16;5055078;28;20024;-32
2022/05/23 04:24:19;;;;;;;1.33;0.90;;;;;;;-148.56;100.00;61375.16;5058407;28;20389;-31
2022/05/23 04:26:44;;;;;;;1.42;0.75;;;;;;;-148.56;100.00;61375.16;5061340;28;20036;-32
2022/05/23 04:29:10;;;;;;;1.75;0.50;;;;;;;-148.56;100.00;61375.16;5060682;28;20058;-29
2022/05/23 04:31:35;;;;;;;2.38;0.82;;;;;;;-148.56;100.00;61375.16;5060134;28;20109;-32
2022/05/23 04:36:46;;;;;;;2.78;0.70;;;;;;;-148.56;100.00;61375.16;5065145;28;20109;-34
2022/05/23 04:39:12;;;;;;;2.63;0.77;;;;;;;-148.56;100.00;61375.16;5064177;28;20085;-33
2022/05/23 04:41:37;;;;;;;3.78;0.90;;;;;;;-148.56;100.00;61375.16;5059149;28;20032;-34
2022/05/23 04:44:03;;;;;;;2.60;0.65;;;;;;;-148.56;100.00;61375.16;5062644;28;20033;-32
2022/05/23 04:46:28;;;;;;;1.77;0.57;;;;;;;-148.56;100.00;61375.16;5060511;28;21325;-32
2022/05/23 04:51:39;;;;;;;3.22;0.70;;;;;;;-148.56;100.00;61375.16;5058406;28;20089;-32
2022/05/23 04:54:05;;;;;;;5.10;0.90;;;;;;;-148.56;100.00;61375.16;5064624;28;20119;-31
2022/05/23 04:56:30;;;;;;;2.28;0.60;;;;;;;-148.56;100.00;61375.16;5063973;28;20344;-33
2022/05/23 04:58:56;;;;;;;3.80;0.70;;;;;;;-148.56;100.00;61375.16;5060287;28;20036;-35
2022/05/23 05:01:21;;;;;;;1.65;0.70;;;;;;;-148.56;100.00;61375.16;5059726;28;20660;-33
2022/05/23 05:03:48;;;;;;;6.82;1.02;;;;;;;-148.56;100.00;61375.16;5056379;28;20450;-33
2022/05/23 05:06:13;;;;;;;1.63;0.60;;;;;;;-148.56;100.00;61375.16;5054813;28;20614;-32
2022/05/23 05:08:38;;;;;;;0.98;0.57;;;;;;;-148.56;100.00;61375.16;5063152;28;20032;-35
2022/05/23 05:11:04;;;;;;;2.00;0.73;;;;;;;-148.56;100.00;61375.16;5054419;28;20050;-31
2022/05/23 05:13:32;;;;;;;1.17;0.60;;;;;;;-148.56;100.00;61375.16;5053878;28;20059;-32
2022/05/23 05:15:59;;;;;;;2.47;0.70;;;;;;;-148.56;100.00;61375.16;5054284;28;20028;-32
2022/05/23 05:18:24;;;;;;;2.10;0.93;;;;;;;-148.56;100.00;61375.16;5057617;28;20049;-32
2022/05/23 05:20:50;;;;;;;0.80;0.55;;;;;;;-148.56;100.00;61375.16;5057810;28;20036;-31
2022/05/23 05:23:15;;;;;;;1.88;0.70;;;;;;;-148.56;100.00;61375.16;5059599;28;21224;-32
2022/05/23 05:25:41;;;;;;;1.20;0.65;;;;;;;-148.56;100.00;61375.16;5062200;28;20063;-34
2022/05/23 05:28:07;;;;;;;0.93;0.63;;;;;;;-148.56;100.00;61375.16;5064367;28;20032;-30
2022/05/23 05:30:33;;;;;;;1.30;0.75;;;;;;;-148.56;100.00;61375.16;5057503;28;20127;-27
2022/05/23 05:33:08;;;;;;;2.75;0.73;;;;;;;-148.56;100.00;61375.16;5059236;28;20052;-30
2022/05/23 05:35:44;;;;;;;1.88;0.70;;;;;;;-148.56;100.00;61375.16;5058637;28;20139;-30
2022/05/23 05:38:16;;;;;;;2.75;0.40;;;;;;;-148.56;100.00;61375.16;5065645;28;20540;-30
2022/05/23 05:40:42;;;;;;;3.05;0.50;;;;;;;-148.56;100.00;61375.16;5067257;28;20084;-29
2022/05/23 05:43:14;;;;;;;3.72;1.05;;;;;;;-148.56;100.00;61375.16;5062265;28;20448;-31
2022/05/23 05:45:45;;;;;;;2.70;0.65;;;;;;;-148.56;100.00;61375.16;5053353;28;20038;-30
2022/05/23 05:48:10;;;;;;;3.85;0.90;;;;;;;-148.56;100.00;61375.16;5063671;28;20032;-30
2022/05/23 05:50:37;;;;;;;1.52;0.80;;;;;;;-148.56;100.00;61375.16;5041823;28;20032;-31
2022/05/23 05:53:05;;;;;;;7.68;1.95;;;;;;;-148.56;100.00;61375.16;5055653;28;20032;-32
2022/05/23 05:55:31;;;;;;;11.73;2.50;;;;;;;-148.56;100.00;61375.16;5039377;28;20115;-32
2022/05/23 05:57:56;;;;;;;9.18;2.50;;;;;;;-148.56;100.00;61375.16;5054435;28;20075;-33
2022/05/23 06:00:22;;;;;;;11.38;2.67;;;;;;;-148.56;100.00;61375.16;5036993;28;20040;-30
2022/05/23 06:02:49;;;;;;;9.55;2.30;;;;;;;-148.56;100.00;61375.16;5058784;28;20032;-31
2022/05/23 06:05:14;;;;;;;7.40;2.20;;;;;;;-148.56;100.00;61375.16;5057103;28;20044;-30
2022/05/23 06:13:07;;;;;;;10.10;2.80;;;;;;;-148.56;100.00;61375.16;5060408;28;20047;-31
2022/05/23 06:15:33;;;;;;;11.65;3.03;;;;;;;-148.56;100.00;61375.16;5056396;28;20332;-31
2022/05/23 06:17:59;;;;;;;8.30;3.00;;;;;;;-148.56;100.00;61375.16;5056380;28;20422;-32
2022/05/23 06:20:24;;;;;;;15.52;3.58;;;;;;;-148.56;100.00;61375.16;5057840;28;20063;-33
2022/05/23 06:22:50;;;;;;;11.45;3.15;;;;;;;-148.56;100.00;61375.16;5055895;28;20032;-33
2022/05/23 06:25:16;;;;;;;10.57;2.90;;;;;;;-148.56;100.00;61375.16;5056549;28;20029;-32
2022/05/23 06:27:41;;;;;;;12.73;3.25;;;;;;;-148.56;100.00;61375.16;5051427;28;20565;-32
2022/05/23 06:30:09;;;;;;;8.45;3.08;;;;;;;-148.56;100.00;61375.16;5055757;28;20029;-30
2022/05/23 06:32:35;;;;;;;8.35;3.03;;;;;;;-148.56;100.00;61375.16;5062783;28;20036;-33
2022/05/23 06:35:00;;;;;;;8.95;3.03;;;;;;;-148.56;100.00;61375.16;5062932;28;20159;-31
2022/05/23 06:37:26;;;;;;;8.48;3.00;;;;;;;-148.56;100.00;61375.16;5061306;28;20029;-31
2022/05/23 06:39:51;;;;;;;12.65;2.92;;;;;;;-148.56;100.00;61375.16;5058469;28;20040;-30
2022/05/23 06:42:17;;;;;;;7.78;2.20;;;;;;;-148.56;100.00;61375.16;5059900;28;20386;-32
2022/05/23 06:44:42;;;;;;;4.95;1.77;;;;;;;-148.56;100.00;61375.16;5053757;28;20101;-30
2022/05/23 06:47:08;;;;;;;5.75;2.35;;;;;;;-148.56;100.00;61375.16;5052838;28;20498;-31
2022/05/23 06:49:33;;;;;;;13.25;2.80;;;;;;;-148.56;100.00;61375.16;5055785;28;23405;-34
2022/05/23 06:51:59;;;;;;;6.25;2.30;;;;;;;-148.56;100.00;61375.16;5046032;28;20043;-32
2022/05/23 06:54:24;;;;;;;8.93;2.45;;;;;;;-148.56;100.00;61375.16;5046272;28;20060;-31
2022/05/23 06:56:50;;;;;;;5.82;2.08;;;;;;;-148.56;100.00;61375.16;5046615;28;20107;-31
2022/05/23 06:59:16;;;;;;;5.60;2.00;;;;;;;-148.56;100.00;61375.16;5050983;28;21083;-34
2022/05/23 07:01:42;;;;;;;6.20;2.17;;;;;;;-148.56;100.00;61375.16;5057363;28;20032;-31
2022/05/23 07:04:07;;;;;;;5.15;1.90;;;;;;;-148.56;100.00;61375.16;5055335;28;20815;-30
2022/05/23 07:14:45;;;;;;;6.47;2.03;;;;;;;-148.56;100.00;61375.16;5055776;28;20998;-32
2022/05/23 07:17:11;;;;;;;3.95;1.80;;;;;;;-148.56;100.00;61375.16;5055077;28;20032;-30
2022/05/23 07:19:36;;;;;;;3.67;1.90;;;;;;;-148.56;100.00;61375.16;5054225;28;22311;-30
2022/05/23 07:22:02;;;;;;;4.90;1.85;;;;;;;-148.56;100.00;61375.16;5052001;28;20024;-33
2022/05/23 07:24:28;;;;;;;5.22;2.05;;;;;;;-148.56;100.00;61375.16;5053901;28;20548;-32
2022/05/23 07:26:55;;;;;;;4.95;2.05;;;;;;;-148.56;100.00;61375.16;5056739;28;20058;-32
2022/05/23 07:29:24;;;;;;;10.00;2.22;;;;;;;-148.56;100.00;61375.16;5056366;28;20040;-31
2022/05/23 07:31:50;;;;;;;4.60;2.10;;;;;;;-148.56;100.00;61375.16;5056578;28;20028;-32
2022/05/23 07:34:15;;;;;;;6.13;2.40;;;;;;;-148.56;100.00;61375.16;5053507;28;20772;-30
2022/05/23 07:36:41;;;;;;;4.18;2.03;;;;;;;-148.56;100.00;61375.16;5055996;28;20067;-31
2022/05/23 07:39:09;;;;;;;6.05;2.05;;;;;;;-148.56;100.00;61375.16;5057218;28;20055;-32
2022/05/23 07:41:35;;;;;;;5.22;1.88;;;;;;;-148.56;100.00;61375.16;5057502;28;20020;-32
2022/05/23 07:44:00;;;;;;;5.57;2.00;;;;;;;-148.56;100.00;61375.16;5059927;28;20024;-32
2022/05/23 07:46:26;;;;;;;6.18;2.25;;;;;;;-148.56;100.00;61375.16;5059804;28;20028;-32
2022/05/23 07:48:51;;;;;;;5.32;1.70;;;;;;;-148.56;100.00;61375.16;5057408;28;20958;-40
2022/05/23 07:51:18;;;;;;;7.70;2.05;;;;;;;-148.56;100.00;61375.16;5059217;28;20028;-30
2022/05/23 08:01:57;;;;;;;6.43;2.50;;;;;;;-148.56;100.00;61375.16;5050032;28;20170;-31
2022/05/23 08:04:23;;;;;;;7.18;3.50;;;;;;;-148.56;100.00;61375.16;5057362;28;20028;-32
2022/05/23 08:06:48;;;;;;;6.35;2.80;;;;;;;-148.56;100.00;61375.16;5057075;28;20059;-31
2022/05/23 08:09:14;;;;;;;5.95;2.22;;;;;;;-148.56;100.00;61375.16;5058775;28;20025;-32
2022/05/23 08:11:40;;;;;;;4.18;2.33;;;;;;;-148.56;100.00;61375.16;5059696;28;20027;-31
2022/05/23 08:14:06;;;;;;;6.05;2.22;;;;;;;-148.56;100.00;61375.16;5052733;28;20086;-31
2022/05/23 08:16:31;;;;;;;5.85;2.38;;;;;;;-148.56;100.00;61375.16;5054767;28;21155;-30
2022/05/23 08:18:58;;;;;;;5.93;2.30;;;;;;;-148.56;100.00;61375.16;5049791;28;20024;-29
2022/05/23 08:21:24;;;;;;;8.13;1.83;;;;;;;-148.56;100.00;61375.16;5061107;28;20537;-32
2022/05/23 08:23:50;;;;;;;7.05;2.38;;;;;;;-148.56;100.00;61375.16;5059332;28;20060;-30
2022/05/23 08:26:15;;;;;;;3.92;1.92;;;;;;;-148.56;100.00;61375.16;5055247;28;22090;-30
2022/05/23 08:28:42;;;;;;;7.13;2.00;;;;;;;-148.56;100.00;61375.16;5062321;28;20035;-30
2022/05/23 08:31:07;;;;;;;4.70;2.05;;;;;;;-148.56;100.00;61375.16;5053410;28;20028;-31
2022/05/23 08:34:28;;;;;;;4.43;1.90;;;;;;;;;;5126864;27;20123;-31
2022/05/23 08:36:54;;;;;;;4.55;2.20;;;;;;;;;;5111973;27;20051;-30
2022/05/23 08:39:20;;;;;;;4.53;2.00;;;;;;;;;;5104015;27;20019;-31
2022/05/23 08:41:45;;;;;;;12.80;2.30;;;;;;;;;;5114062;27;20446;-31
2022/05/23 08:44:29;;;;;;;11.25;1.98;;;;;;;;;;5112109;27;20035;-30
2022/05/23 08:46:54;;;;;;;4.93;2.28;;;;;;;;;;5111127;27;20100;-30
2022/05/23 08:49:24;;;;;;;6.97;2.45;;;;;;;;;;5106779;27;20165;-31
2022/05/23 08:51:59;;;;;;;14.63;2.60;;;;;;;;;;5107029;27;20088;-29
2022/05/23 08:54:28;;;;;;;11.25;2.30;;;;;;;;;;5087914;27;20043;-32
2022/05/23 08:56:54;;;;;;;14.13;3.13;;;;;;;;;;5090151;27;20419;-31
2022/05/23 08:59:25;;;;;;;12.35;3.10;;;;;;;;;;5106480;27;20030;-30
2022/05/23 09:01:58;;;;;;;12.07;3.38;;;;;;;;;;5096349;27;20510;-31
2022/05/23 09:04:23;;;;;;;19.55;3.88;;;;;;;;;;5108032;27;20027;-30
2022/05/23 09:06:48;;;;;;;18.00;4.20;;;;;;;;;;5113219;27;20027;-32
2022/05/23 09:09:15;;;;;;;9.88;3.50;;;;;;;;;;5094439;27;20531;-30
2022/05/23 09:11:41;;;;;;;20.13;4.72;;;;;;;;;;5115602;27;20042;-33
2022/05/23 09:14:06;;;;;;;15.73;4.13;;;;;;;;;;5117829;27;20023;-33
2022/05/23 09:16:42;;;;;;;17.08;4.32;;;;;;;;;;5100425;27;20080;-39
2022/05/23 09:19:14;;;;;;;13.18;3.90;;;;;;;;;;5101830;27;20030;-33
2022/05/23 09:24:23;;;;;;;8.75;3.70;;;;;;;;;;5116599;27;20034;-30
2022/05/23 09:26:48;;;;;;;16.02;3.95;;;;;;;;;;5098164;27;20023;-34
2022/05/23 09:29:13;;;;;;;12.45;3.80;;;;;;;;;;5099093;27;20066;-34
2022/05/23 09:31:39;;;;;;;10.20;3.30;;;;;;;;;;5117497;27;20031;-31
2022/05/23 09:34:04;;;;;;;11.10;3.50;;;;;;;;;;5116269;27;20299;-33
2022/05/23 09:36:36;;;;;;;10.13;3.22;;;;;;;;;;5099128;27;20985;-32
2022/05/23 09:39:02;;;;;;;11.18;3.10;;;;;;;;;;5118442;27;20704;-31
2022/05/23 09:47:44;;;;;;;10.75;3.30;;;;;;;;;;5123478;27;20716;-32
2022/05/23 09:49:46;;;;;;;6.10;2.60;;;;;;;;;;5111698;28;20033;-31
2022/05/23 09:52:17;;;;;;;10.80;3.55;;;;;;;;;;5107563;27;20015;-32
2022/05/23 09:54:46;;;;;;;9.25;2.90;;;;;;;;;;5107790;27;20519;-30
2022/05/23 09:57:20;;;;;;;9.45;3.30;;;;;;;;;;5090706;28;20387;-34
2022/05/23 09:59:52;;;;;;;6.10;2.88;;;;;;;;;;5108772;27;20051;-30
2022/05/23 10:02:29;;;;;;;8.90;3.13;;;;;;;;;;5090524;27;20027;-33
2022/05/23 10:04:54;;;;;;;10.35;3.10;;;;;;;;;;5108721;27;20048;-31
2022/05/23 10:07:22;;;;;;;7.00;3.08;;;;;;;;;;5105334;27;20035;-36
2022/05/23 10:10:18;;;;;;;6.80;2.60;;;;;;;;;;5109738;28;20027;-31
2022/05/23 10:12:43;;;;;;;8.73;2.72;;;;;;;;;;5087665;27;20039;-30
2022/05/23 10:15:13;;;;;;;7.28;2.70;;;;;;;;;;5088379;28;20023;-31
2022/05/23 10:17:38;;;;;;;5.25;2.63;;;;;;;;;;5109954;27;20033;-31
2022/05/23 10:20:23;;;;;;;7.05;3.00;;;;;;;;;;5108023;27;20019;-41
2022/05/23 10:22:58;;;;;;;5.38;2.90;;;;;;;;;;5111519;28;20015;-32
2022/05/23 10:25:24;;;;;;;6.68;2.45;;;;;;;;;;5108520;27;20020;-30
2022/05/23 10:27:49;;;;;;;5.22;2.42;;;;;;;;;;5087500;28;20470;-30
2022/05/23 10:30:15;;;;;;;7.28;2.38;;;;;;;;;;5106738;27;20169;-31
2022/05/23 10:32:41;;;;;;;7.00;2.80;;;;;;;;;;5101532;27;20031;-30
2022/05/23 10:35:27;;;;;;;6.28;2.30;;;;;;;;;;5102474;27;20028;-32
2022/05/23 10:37:52;;;;;;;6.22;2.80;;;;;;;;;;5093544;27;20066;-32
2022/05/23 10:43:01;;;;;;;6.25;2.40;;;;;;;;;;5097665;27;20083;-33
2022/05/23 10:45:27;;;;;;;6.03;2.40;;;;;;;;;;5085567;27;20019;-36
2022/05/23 10:47:58;;;;;;;6.05;2.33;;;;;;;;;;5093027;27;21164;-31
2022/05/23 10:50:35;;;;;;;5.32;2.08;;;;;;;;;;5096359;27;20031;-32
2022/05/23 10:53:20;;;;;;;6.07;2.70;;;;;;;;;;5073080;27;20046;-32
2022/05/23 10:55:45;;;;;;;5.15;2.35;;;;;;;;;;5096845;27;20122;-32
2022/05/23 10:58:17;;;;;;;4.77;2.10;;;;;;;;;;5095971;27;20098;-31
2022/05/23 11:00:51;;;;;;;3.60;2.17;;;;;;;;;;5096665;27;21017;-31
2022/05/23 11:03:16;;;;;;;5.47;2.20;;;;;;;;;;5107940;28;20027;-31
2022/05/23 11:05:47;;;;;;;4.53;2.20;;;;;;;;;;5110428;27;20047;-34
2022/05/23 11:08:23;;;;;;;15.10;2.58;;;;;;;;;;5085941;28;20882;-32
2022/05/23 11:11:08;;;;;;;6.07;2.05;;;;;;;;;;5102690;28;20058;-32
2022/05/23 11:14:00;;;;;;;5.35;2.45;;;;;;;;;;5101257;27;20410;-34
2022/05/23 11:16:31;;;;;;;5.63;2.47;;;;;;;;;;5094539;27;20035;-32
2022/05/23 11:18:57;;;;;;;4.53;2.08;;;;;;;;;;5100250;27;20038;-32
2022/05/23 11:21:33;;;;;;;17.83;2.53;;;;;;;;;;5102563;27;20027;-34
2022/05/23 11:24:01;;;;;;;3.50;1.90;;;;;;;;;;5075755;28;20015;-33
2022/05/23 11:26:30;;;;;;;5.00;1.92;;;;;;;;;;5080310;28;20069;-31
2022/05/23 11:34:37;;;;;;;6.03;2.00;;;;;;;;;;5100235;27;20038;-31
2022/05/23 11:39:51;;;;;;;4.18;2.17;;;;;;;;;;5079292;28;20084;-38
2022/05/23 11:42:37;;;;;;;4.63;1.90;;;;;;;;;;5093211;27;20031;-35
2022/05/23 11:45:56;;;;;;;6.50;2.03;;;;;;;;;;5054752;27;20039;-33
2022/05/23 11:47:51;;;;;;;3.90;2.00;;;;;;;;;;5097617;27;20039;-31
2022/05/23 11:50:23;;;;;;;5.22;2.10;;;;;;;;;;5099630;27;20080;-32
2022/05/23 11:52:50;;;;;;;4.93;1.83;;;;;;;;;;5098793;27;20143;-32
2022/05/23 11:55:35;;;;;;;3.88;1.83;;;;;;;;;;5079792;28;20092;-37
2022/05/23 11:58:18;;;;;;;5.28;1.83;;;;;;;;;;5098171;27;20114;-35
2022/05/23 12:01:00;;;;;;;4.18;1.83;;;;;;;;;;5088048;27;20025;-31
2022/05/23 12:03:25;;;;;;;3.40;1.75;;;;;;;;;;5063078;27;20508;-37
2022/05/23 12:06:11;;;;;;;5.57;1.95;;;;;;;;;;5070060;27;20031;-37
2022/05/23 12:08:37;;;;;;;3.75;1.70;;;;;;;;;;5056904;27;20499;-36
2022/05/23 12:11:02;;;;;;;3.28;1.83;;;;;;;;;;5072180;27;20020;-37
2022/05/23 12:13:31;;;;;;;4.57;1.48;;;;;;;;;;5066023;27;20042;-34
2022/05/23 12:15:58;;;;;;;4.07;1.75;;;;;;;;;;5064293;27;21044;-31
2022/05/23 12:18:23;;;;;;;4.18;1.60;;;;;;;;;;5041228;27;20031;-31
2022/05/23 12:20:59;;;;;;;4.53;1.60;;;;;;;;;;5081472;27;20079;-33
2022/05/23 12:23:35;;;;;;;23.08;2.35;;;;;;;;;;5066654;27;20103;-31
2022/05/23 12:26:24;;;;;;;7.93;1.73;;;;;;;;;;5060580;27;20023;-31
2022/05/23 12:28:57;;;;;;;11.25;1.70;;;;;;;;;;5064084;27;20042;-36
2022/05/23 12:31:23;;;;;;;5.28;1.85;;;;;;;;;;5041734;27;20019;-31
2022/05/23 12:33:50;;;;;;;5.30;1.98;;;;;;;;;;5068766;27;20292;-37
2022/05/23 12:36:18;;;;;;;4.07;2.00;;;;;;;;;;5070574;27;22130;-32
2022/05/23 12:38:52;;;;;;;8.18;2.65;;;;;;;;;;5068597;27;20023;-36
2022/05/23 12:41:21;;;;;;;12.75;3.03;;;;;;;;;;5074464;27;20047;-33
2022/05/23 12:43:52;;;;;;;11.57;3.08;;;;;;;;;;5053656;27;20027;-35
2022/05/23 12:46:18;;;;;;;8.90;2.78;;;;;;;;;;5071670;27;20033;-32
2022/05/23 12:48:59;;;;;;;11.03;2.67;;;;;;;;;;5062666;27;20026;-31
2022/05/23 12:51:43;;;;;;;13.52;2.83;;;;;;;;;;5030254;27;20387;-33
2022/05/23 12:54:21;;;;;;;12.80;2.80;;;;;;;;;;5070080;27;20150;-31
2022/05/23 12:56:49;;;;;;;9.85;2.88;;;;;;;;;;5064911;27;20053;-32
2022/05/23 12:59:33;;;;;;;12.70;3.03;;;;;;;;;;5074656;27;20359;-34
2022/05/23 13:02:02;;;;;;;10.07;3.58;;;;;;;;;;5094104;27;20050;-34
2022/05/23 13:04:28;;;;;;;12.80;3.25;;;;;;;;;;5081753;28;20029;-30
2022/05/23 13:07:01;;;;;;;12.15;3.33;;;;;;;;;;5078380;27;20027;-31
2022/05/23 13:09:35;;;;;;;11.43;3.35;;;;;;;;;;5101421;27;20577;-32
2022/05/23 13:12:05;;;;;;;14.27;3.55;;;;;;;;;;5101269;27;20019;-31
2022/05/23 13:14:45;;;;;;;10.80;3.05;;;;;;;;;;5080935;27;21127;-31
2022/05/23 13:17:10;;;;;;;11.60;3.47;;;;;;;;;;5091495;27;20019;-31
2022/05/23 13:22:23;;;;;;;15.05;3.22;;;;;;;;;;5084565;28;20687;-31